X  Close Metar Aviation Weather Data     ENRY Moss Airport, Rygge
Temperature
13°C Temperature
11°C Dewpoint
88% Humidity



Wind
4 M/S
8 MPH
13 KM/H
7 KTS



130°
SE
Current Conditions

Partly Cloudy Partly Cloudy
Pressure 1008.81 (hPa) - 29.79 (inHg)
Visibility 6 (mile) - 9.7 (km)
Airport
Airport-code ENRY

Location: Moss Airport, Rygge
Distance: 12 (km)

Metar:
ENRY 150020Z AUTO 13007KT 9999 FEW110/// 13/11 Q1009

Time: 15-07-2024 02:20 CEST